sensor_id;sensor_type;location;lat;lon;timestamp;temperature;humidity
37938;DHT22;23763;48.130;11.602;2022-07-30T00:02:22;17.80;99.90
37938;DHT22;23763;48.130;11.602;2022-07-30T00:04:48;17.80;99.90
37938;DHT22;23763;48.130;11.602;2022-07-30T00:07:14;17.80;99.90
37938;DHT22;23763;48.130;11.602;2022-07-30T00:09:40;17.80;99.90
37938;DHT22;23763;48.130;11.602;2022-07-30T00:12:07;17.80;99.90
37938;DHT22;23763;48.130;11.602;2022-07-30T00:14:33;17.80;99.90
37938;DHT22;23763;48.130;11.602;2022-07-30T00:17:00;17.90;99.90
37938;DHT22;23763;48.130;11.602;2022-07-30T00:19:25;17.90;99.90
37938;DHT22;23763;48.130;11.602;2022-07-30T00:21:51;17.90;99.90
37938;DHT22;23763;48.130;11.602;2022-07-30T00:24:19;17.80;99.90
37938;DHT22;23763;48.130;11.602;2022-07-30T00:26:45;17.80;99.90
37938;DHT22;23763;48.130;11.602;2022-07-30T00:29:10;18.00;99.90
37938;DHT22;23763;48.130;11.602;2022-07-30T00:31:36;17.90;99.90
37938;DHT22;23763;48.130;11.602;2022-07-30T00:34:02;17.90;99.90
37938;DHT22;23763;48.130;11.602;2022-07-30T00:36:27;17.90;99.90
37938;DHT22;23763;48.130;11.602;2022-07-30T00:38:53;17.90;99.90
37938;DHT22;23763;48.130;11.602;2022-07-30T00:41:19;17.90;99.90
37938;DHT22;23763;48.130;11.602;2022-07-30T00:43:45;17.90;99.90
37938;DHT22;23763;48.130;11.602;2022-07-30T00:46:11;17.90;99.90
37938;DHT22;23763;48.130;11.602;2022-07-30T00:48:36;17.90;99.90
37938;DHT22;23763;48.130;11.602;2022-07-30T00:51:02;17.90;99.90
37938;DHT22;23763;48.130;11.602;2022-07-30T00:53:28;17.90;99.90
37938;DHT22;23763;48.130;11.602;2022-07-30T00:55:53;18.00;99.90
37938;DHT22;23763;48.130;11.602;2022-07-30T00:58:19;18.00;99.90
37938;DHT22;23763;48.130;11.602;2022-07-30T01:00:45;17.90;99.90
37938;DHT22;23763;48.130;11.602;2022-07-30T01:03:10;17.90;99.90
37938;DHT22;23763;48.130;11.602;2022-07-30T01:05:36;17.90;99.90
37938;DHT22;23763;48.130;11.602;2022-07-30T01:08:02;18.00;99.90
37938;DHT22;23763;48.130;11.602;2022-07-30T01:10:28;18.00;99.90
37938;DHT22;23763;48.130;11.602;2022-07-30T01:12:53;18.00;99.90
37938;DHT22;23763;48.130;11.602;2022-07-30T01:15:20;18.00;99.90
37938;DHT22;23763;48.130;11.602;2022-07-30T01:17:48;18.00;99.90
37938;DHT22;23763;48.130;11.602;2022-07-30T01:20:20;18.00;99.90
37938;DHT22;23763;48.130;11.602;2022-07-30T01:23:11;18.10;99.90
37938;DHT22;23763;48.130;11.602;2022-07-30T01:25:45;18.10;99.90
37938;DHT22;23763;48.130;11.602;2022-07-30T01:28:16;18.00;99.90
37938;DHT22;23763;48.130;11.602;2022-07-30T01:30:43;18.00;99.90
37938;DHT22;23763;48.130;11.602;2022-07-30T01:33:11;18.00;99.90
37938;DHT22;23763;48.130;11.602;2022-07-30T01:35:39;18.00;99.90
37938;DHT22;23763;48.130;11.602;2022-07-30T01:38:06;18.00;99.90
37938;DHT22;23763;48.130;11.602;2022-07-30T01:40:34;18.00;99.90
37938;DHT22;23763;48.130;11.602;2022-07-30T01:43:02;18.10;99.90
37938;DHT22;23763;48.130;11.602;2022-07-30T01:45:29;18.00;99.90
37938;DHT22;23763;48.130;11.602;2022-07-30T01:47:58;18.00;99.90
37938;DHT22;23763;48.130;11.602;2022-07-30T01:50:26;18.10;99.90
37938;DHT22;23763;48.130;11.602;2022-07-30T01:52:54;18.10;99.90
37938;DHT22;23763;48.130;11.602;2022-07-30T01:55:24;18.10;99.90
37938;DHT22;23763;48.130;11.602;2022-07-30T01:57:53;18.10;99.90
37938;DHT22;23763;48.130;11.602;2022-07-30T02:00:21;18.10;99.90
37938;DHT22;23763;48.130;11.602;2022-07-30T02:02:48;18.10;99.90
37938;DHT22;23763;48.130;11.602;2022-07-30T02:05:14;18.10;99.90
37938;DHT22;23763;48.130;11.602;2022-07-30T02:07:47;18.10;99.90
37938;DHT22;23763;48.130;11.602;2022-07-30T02:10:27;18.10;99.90
37938;DHT22;23763;48.130;11.602;2022-07-30T02:12:56;18.20;99.90
37938;DHT22;23763;48.130;11.602;2022-07-30T02:18:20;18.20;99.90
37938;DHT22;23763;48.130;11.602;2022-07-30T02:20:55;18.30;99.90
37938;DHT22;23763;48.130;11.602;2022-07-30T02:23:23;18.30;99.90
37938;DHT22;23763;48.130;11.602;2022-07-30T02:25:50;18.20;99.90
37938;DHT22;23763;48.130;11.602;2022-07-30T02:28:17;18.30;99.90
37938;DHT22;23763;48.130;11.602;2022-07-30T02:30:50;18.20;99.90
37938;DHT22;23763;48.130;11.602;2022-07-30T02:33:20;18.20;99.90
37938;DHT22;23763;48.130;11.602;2022-07-30T02:35:47;18.20;99.90
37938;DHT22;23763;48.130;11.602;2022-07-30T02:38:15;18.20;99.90
37938;DHT22;23763;48.130;11.602;2022-07-30T02:40:43;18.30;99.90
37938;DHT22;23763;48.130;11.602;2022-07-30T02:43:10;18.20;99.90
37938;DHT22;23763;48.130;11.602;2022-07-30T02:45:39;18.20;99.90
37938;DHT22;23763;48.130;11.602;2022-07-30T02:48:08;18.20;99.90
37938;DHT22;23763;48.130;11.602;2022-07-30T02:50:34;18.20;99.90
37938;DHT22;23763;48.130;11.602;2022-07-30T02:53:02;18.30;99.90
37938;DHT22;23763;48.130;11.602;2022-07-30T02:55:31;18.30;99.90
37938;DHT22;23763;48.130;11.602;2022-07-30T02:57:59;18.30;99.90
37938;DHT22;23763;48.130;11.602;2022-07-30T03:00:26;18.40;99.90
37938;DHT22;23763;48.130;11.602;2022-07-30T03:02:55;18.30;99.90
37938;DHT22;23763;48.130;11.602;2022-07-30T03:05:22;18.30;99.90
37938;DHT22;23763;48.130;11.602;2022-07-30T03:07:48;18.30;99.90
37938;DHT22;23763;48.130;11.602;2022-07-30T03:10:15;18.30;99.90
37938;DHT22;23763;48.130;11.602;2022-07-30T03:12:44;18.40;99.90
37938;DHT22;23763;48.130;11.602;2022-07-30T03:15:10;18.40;99.90
37938;DHT22;23763;48.130;11.602;2022-07-30T03:17:39;18.40;99.90
37938;DHT22;23763;48.130;11.602;2022-07-30T03:20:09;18.40;99.90
37938;DHT22;23763;48.130;11.602;2022-07-30T03:22:40;18.30;99.90
37938;DHT22;23763;48.130;11.602;2022-07-30T03:25:09;18.40;99.90
37938;DHT22;23763;48.130;11.602;2022-07-30T03:27:39;18.50;99.90
37938;DHT22;23763;48.130;11.602;2022-07-30T03:30:06;18.50;99.90
37938;DHT22;23763;48.130;11.602;2022-07-30T03:32:33;18.50;99.90
37938;DHT22;23763;48.130;11.602;2022-07-30T03:34:59;18.40;99.90
37938;DHT22;23763;48.130;11.602;2022-07-30T03:37:26;18.40;99.90
37938;DHT22;23763;48.130;11.602;2022-07-30T03:39:53;18.50;99.90
37938;DHT22;23763;48.130;11.602;2022-07-30T03:42:20;18.50;99.90
37938;DHT22;23763;48.130;11.602;2022-07-30T03:44:47;18.40;99.90
37938;DHT22;23763;48.130;11.602;2022-07-30T03:47:13;18.40;99.90
37938;DHT22;23763;48.130;11.602;2022-07-30T03:49:40;18.40;99.90
37938;DHT22;23763;48.130;11.602;2022-07-30T03:52:07;18.40;99.90
37938;DHT22;23763;48.130;11.602;2022-07-30T03:54:33;18.40;99.90
37938;DHT22;23763;48.130;11.602;2022-07-30T03:57:00;18.40;99.90
37938;DHT22;23763;48.130;11.602;2022-07-30T03:59:27;18.50;99.90
37938;DHT22;23763;48.130;11.602;2022-07-30T04:01:53;18.50;99.90
37938;DHT22;23763;48.130;11.602;2022-07-30T04:04:19;18.40;99.90
37938;DHT22;23763;48.130;11.602;2022-07-30T04:06:45;18.50;99.90
37938;DHT22;23763;48.130;11.602;2022-07-30T04:09:12;18.40;99.90
37938;DHT22;23763;48.130;11.602;2022-07-30T04:11:38;18.40;99.90
37938;DHT22;23763;48.130;11.602;2022-07-30T04:14:07;18.50;99.90
37938;DHT22;23763;48.130;11.602;2022-07-30T04:19:15;18.50;99.90
37938;DHT22;23763;48.130;11.602;2022-07-30T04:21:44;18.40;99.90
37938;DHT22;23763;48.130;11.602;2022-07-30T04:24:12;18.50;99.90
37938;DHT22;23763;48.130;11.602;2022-07-30T04:26:38;18.50;99.90
37938;DHT22;23763;48.130;11.602;2022-07-30T04:29:06;18.50;99.90
37938;DHT22;23763;48.130;11.602;2022-07-30T04:31:32;18.50;99.90
37938;DHT22;23763;48.130;11.602;2022-07-30T04:34:01;18.50;99.90
37938;DHT22;23763;48.130;11.602;2022-07-30T04:36:27;18.60;99.90
37938;DHT22;23763;48.130;11.602;2022-07-30T04:38:53;18.60;99.90
37938;DHT22;23763;48.130;11.602;2022-07-30T04:41:19;18.70;99.90
37938;DHT22;23763;48.130;11.602;2022-07-30T04:43:44;18.70;99.90
37938;DHT22;23763;48.130;11.602;2022-07-30T04:46:10;18.70;99.90
37938;DHT22;23763;48.130;11.602;2022-07-30T04:48:36;18.70;99.90
37938;DHT22;23763;48.130;11.602;2022-07-30T04:51:06;18.70;99.90
37938;DHT22;23763;48.130;11.602;2022-07-30T04:53:34;18.80;99.90
37938;DHT22;23763;48.130;11.602;2022-07-30T04:56:00;18.80;99.90
37938;DHT22;23763;48.130;11.602;2022-07-30T04:58:27;18.90;99.90
37938;DHT22;23763;48.130;11.602;2022-07-30T05:00:54;19.00;99.90
37938;DHT22;23763;48.130;11.602;2022-07-30T05:03:22;19.00;99.90
37938;DHT22;23763;48.130;11.602;2022-07-30T05:05:50;19.00;99.90
37938;DHT22;23763;48.130;11.602;2022-07-30T05:08:16;19.00;99.90
37938;DHT22;23763;48.130;11.602;2022-07-30T05:10:42;19.10;99.90
37938;DHT22;23763;48.130;11.602;2022-07-30T05:13:13;19.20;99.90
37938;DHT22;23763;48.130;11.602;2022-07-30T05:15:41;19.30;99.90
37938;DHT22;23763;48.130;11.602;2022-07-30T05:18:09;19.40;99.90
37938;DHT22;23763;48.130;11.602;2022-07-30T05:20:36;19.60;99.90
37938;DHT22;23763;48.130;11.602;2022-07-30T05:23:02;19.70;99.90
37938;DHT22;23763;48.130;11.602;2022-07-30T05:25:28;19.50;99.90
37938;DHT22;23763;48.130;11.602;2022-07-30T05:27:53;19.60;99.90
37938;DHT22;23763;48.130;11.602;2022-07-30T05:30:21;19.50;99.90
37938;DHT22;23763;48.130;11.602;2022-07-30T05:32:47;19.50;99.90
37938;DHT22;23763;48.130;11.602;2022-07-30T05:35:12;19.50;99.90
37938;DHT22;23763;48.130;11.602;2022-07-30T05:37:38;19.40;99.90
37938;DHT22;23763;48.130;11.602;2022-07-30T05:40:04;19.40;99.90
37938;DHT22;23763;48.130;11.602;2022-07-30T05:42:30;19.50;99.90
37938;DHT22;23763;48.130;11.602;2022-07-30T05:44:56;19.60;99.90
37938;DHT22;23763;48.130;11.602;2022-07-30T05:47:21;19.60;99.90
37938;DHT22;23763;48.130;11.602;2022-07-30T05:49:47;19.70;99.90
37938;DHT22;23763;48.130;11.602;2022-07-30T05:52:13;19.90;99.90
37938;DHT22;23763;48.130;11.602;2022-07-30T05:54:39;19.90;99.90
37938;DHT22;23763;48.130;11.602;2022-07-30T05:57:05;19.80;99.90
37938;DHT22;23763;48.130;11.602;2022-07-30T05:59:30;19.70;99.90
37938;DHT22;23763;48.130;11.602;2022-07-30T06:01:56;19.60;99.90
37938;DHT22;23763;48.130;11.602;2022-07-30T06:04:22;19.50;99.90
37938;DHT22;23763;48.130;11.602;2022-07-30T06:06:47;19.50;99.90
37938;DHT22;23763;48.130;11.602;2022-07-30T06:09:13;19.50;99.90
37938;DHT22;23763;48.130;11.602;2022-07-30T06:11:40;19.50;99.90
37938;DHT22;23763;48.130;11.602;2022-07-30T06:14:06;19.60;99.90
37938;DHT22;23763;48.130;11.602;2022-07-30T06:16:31;19.70;99.90
37938;DHT22;23763;48.130;11.602;2022-07-30T06:18:57;19.80;99.90
37938;DHT22;23763;48.130;11.602;2022-07-30T06:21:23;20.00;99.90
37938;DHT22;23763;48.130;11.602;2022-07-30T06:23:48;20.00;99.90
37938;DHT22;23763;48.130;11.602;2022-07-30T06:26:14;20.10;99.90
37938;DHT22;23763;48.130;11.602;2022-07-30T06:28:40;20.30;99.90
37938;DHT22;23763;48.130;11.602;2022-07-30T06:31:06;20.50;99.90
37938;DHT22;23763;48.130;11.602;2022-07-30T06:33:32;20.60;99.90
37938;DHT22;23763;48.130;11.602;2022-07-30T06:35:58;20.60;99.90
37938;DHT22;23763;48.130;11.602;2022-07-30T06:38:24;20.50;99.90
37938;DHT22;23763;48.130;11.602;2022-07-30T06:40:49;20.30;99.90
37938;DHT22;23763;48.130;11.602;2022-07-30T06:43:15;20.10;99.90
37938;DHT22;23763;48.130;11.602;2022-07-30T06:45:41;20.10;99.90
37938;DHT22;23763;48.130;11.602;2022-07-30T06:48:07;20.10;99.90
37938;DHT22;23763;48.130;11.602;2022-07-30T06:50:34;20.10;99.90
37938;DHT22;23763;48.130;11.602;2022-07-30T06:53:00;20.20;99.90
37938;DHT22;23763;48.130;11.602;2022-07-30T06:55:26;20.20;99.90
37938;DHT22;23763;48.130;11.602;2022-07-30T06:57:52;20.20;99.90
37938;DHT22;23763;48.130;11.602;2022-07-30T07:00:18;20.30;99.90
37938;DHT22;23763;48.130;11.602;2022-07-30T07:02:45;20.30;99.90
37938;DHT22;23763;48.130;11.602;2022-07-30T07:05:10;20.20;99.90
37938;DHT22;23763;48.130;11.602;2022-07-30T07:07:37;20.40;99.90
37938;DHT22;23763;48.130;11.602;2022-07-30T07:10:03;20.80;99.90
37938;DHT22;23763;48.130;11.602;2022-07-30T07:12:28;21.40;99.90
37938;DHT22;23763;48.130;11.602;2022-07-30T07:14:54;22.40;99.90
37938;DHT22;23763;48.130;11.602;2022-07-30T07:17:20;22.60;99.90
37938;DHT22;23763;48.130;11.602;2022-07-30T07:19:45;23.40;99.90
37938;DHT22;23763;48.130;11.602;2022-07-30T07:22:11;23.50;99.90
37938;DHT22;23763;48.130;11.602;2022-07-30T07:24:37;23.50;99.90
37938;DHT22;23763;48.130;11.602;2022-07-30T07:27:03;23.60;99.90
37938;DHT22;23763;48.130;11.602;2022-07-30T07:29:28;23.70;99.90
37938;DHT22;23763;48.130;11.602;2022-07-30T07:31:54;23.60;99.90
37938;DHT22;23763;48.130;11.602;2022-07-30T07:34:20;23.90;99.90
37938;DHT22;23763;48.130;11.602;2022-07-30T07:36:46;23.60;99.90
37938;DHT22;23763;48.130;11.602;2022-07-30T07:39:12;23.30;99.90
37938;DHT22;23763;48.130;11.602;2022-07-30T07:41:37;23.20;99.90
37938;DHT22;23763;48.130;11.602;2022-07-30T07:44:04;23.20;99.90
37938;DHT22;23763;48.130;11.602;2022-07-30T07:46:30;23.40;99.90
37938;DHT22;23763;48.130;11.602;2022-07-30T07:48:56;23.30;99.90
37938;DHT22;23763;48.130;11.602;2022-07-30T07:51:22;24.10;99.90
37938;DHT22;23763;48.130;11.602;2022-07-30T07:53:48;24.70;99.90
37938;DHT22;23763;48.130;11.602;2022-07-30T07:56:13;26.80;99.90
37938;DHT22;23763;48.130;11.602;2022-07-30T07:58:40;28.50;99.70
37938;DHT22;23763;48.130;11.602;2022-07-30T08:01:05;29.30;96.80
37938;DHT22;23763;48.130;11.602;2022-07-30T08:03:31;30.30;94.50
37938;DHT22;23763;48.130;11.602;2022-07-30T08:05:57;31.70;91.00
37938;DHT22;23763;48.130;11.602;2022-07-30T08:08:23;30.80;90.80
37938;DHT22;23763;48.130;11.602;2022-07-30T08:10:49;29.70;91.30
37938;DHT22;23763;48.130;11.602;2022-07-30T08:13:15;28.80;91.90
37938;DHT22;23763;48.130;11.602;2022-07-30T08:15:41;28.50;92.60
37938;DHT22;23763;48.130;11.602;2022-07-30T08:18:06;28.20;92.40
37938;DHT22;23763;48.130;11.602;2022-07-30T08:20:33;29.10;91.30
37938;DHT22;23763;48.130;11.602;2022-07-30T08:23:00;29.30;91.10
37938;DHT22;23763;48.130;11.602;2022-07-30T08:25:27;30.40;87.70
37938;DHT22;23763;48.130;11.602;2022-07-30T08:27:53;32.00;84.00
37938;DHT22;23763;48.130;11.602;2022-07-30T08:30:19;31.40;82.20
37938;DHT22;23763;48.130;11.602;2022-07-30T08:32:44;31.50;81.40
37938;DHT22;23763;48.130;11.602;2022-07-30T08:35:10;32.20;79.80
37938;DHT22;23763;48.130;11.602;2022-07-30T08:37:37;33.40;76.00
37938;DHT22;23763;48.130;11.602;2022-07-30T08:40:05;33.60;73.90
37938;DHT22;23763;48.130;11.602;2022-07-30T08:42:33;34.50;71.50
37938;DHT22;23763;48.130;11.602;2022-07-30T08:45:00;34.30;69.90
37938;DHT22;23763;48.130;11.602;2022-07-30T08:47:33;32.40;74.10
37938;DHT22;23763;48.130;11.602;2022-07-30T08:50:00;32.50;74.00
37938;DHT22;23763;48.130;11.602;2022-07-30T08:52:31;33.00;74.00
37938;DHT22;23763;48.130;11.602;2022-07-30T08:54:58;34.20;70.90
37938;DHT22;23763;48.130;11.602;2022-07-30T08:57:24;35.70;68.50
37938;DHT22;23763;48.130;11.602;2022-07-30T08:59:50;34.80;67.30
37938;DHT22;23763;48.130;11.602;2022-07-30T09:02:16;34.30;67.80
37938;DHT22;23763;48.130;11.602;2022-07-30T09:04:42;32.00;70.30
37938;DHT22;23763;48.130;11.602;2022-07-30T09:07:08;30.90;73.70
37938;DHT22;23763;48.130;11.602;2022-07-30T09:09:34;30.20;75.60
37938;DHT22;23763;48.130;11.602;2022-07-30T09:11:59;30.40;75.20
37938;DHT22;23763;48.130;11.602;2022-07-30T09:14:25;30.50;75.60
37938;DHT22;23763;48.130;11.602;2022-07-30T09:16:57;30.50;74.80
37938;DHT22;23763;48.130;11.602;2022-07-30T09:19:23;30.20;75.80
37938;DHT22;23763;48.130;11.602;2022-07-30T09:22:00;28.80;78.60
37938;DHT22;23763;48.130;11.602;2022-07-30T09:24:26;27.90;80.10
37938;DHT22;23763;48.130;11.602;2022-07-30T09:26:56;27.20;82.10
37938;DHT22;23763;48.130;11.602;2022-07-30T09:29:27;27.30;81.90
37938;DHT22;23763;48.130;11.602;2022-07-30T09:34:31;26.20;85.60
37938;DHT22;23763;48.130;11.602;2022-07-30T09:37:00;25.90;85.80
37938;DHT22;23763;48.130;11.602;2022-07-30T09:39:38;26.10;86.30
37938;DHT22;23763;48.130;11.602;2022-07-30T09:42:20;26.30;85.50
37938;DHT22;23763;48.130;11.602;2022-07-30T09:44:47;26.00;85.40
37938;DHT22;23763;48.130;11.602;2022-07-30T09:47:38;26.10;85.80
37938;DHT22;23763;48.130;11.602;2022-07-30T09:50:09;25.60;86.30
37938;DHT22;23763;48.130;11.602;2022-07-30T09:52:37;25.40;88.20
37938;DHT22;23763;48.130;11.602;2022-07-30T09:55:03;25.40;87.60
37938;DHT22;23763;48.130;11.602;2022-07-30T09:57:30;25.70;87.00
37938;DHT22;23763;48.130;11.602;2022-07-30T09:59:56;25.70;86.50
37938;DHT22;23763;48.130;11.602;2022-07-30T10:02:32;25.90;86.20
37938;DHT22;23763;48.130;11.602;2022-07-30T10:05:14;26.30;85.50
37938;DHT22;23763;48.130;11.602;2022-07-30T10:07:55;26.10;85.80
37938;DHT22;23763;48.130;11.602;2022-07-30T10:10:23;25.70;84.40
37938;DHT22;23763;48.130;11.602;2022-07-30T10:12:52;25.70;84.80
37938;DHT22;23763;48.130;11.602;2022-07-30T10:15:19;25.60;84.90
37938;DHT22;23763;48.130;11.602;2022-07-30T10:17:46;25.80;85.50
37938;DHT22;23763;48.130;11.602;2022-07-30T10:20:14;25.80;85.00
37938;DHT22;23763;48.130;11.602;2022-07-30T10:22:40;25.90;83.00
37938;DHT22;23763;48.130;11.602;2022-07-30T10:25:07;25.40;82.40
37938;DHT22;23763;48.130;11.602;2022-07-30T10:27:33;25.00;82.50
37938;DHT22;23763;48.130;11.602;2022-07-30T10:29:59;24.80;84.90
37938;DHT22;23763;48.130;11.602;2022-07-30T10:32:26;24.90;85.00
37938;DHT22;23763;48.130;11.602;2022-07-30T10:34:53;25.20;80.50
37938;DHT22;23763;48.130;11.602;2022-07-30T10:37:19;25.20;78.60
37938;DHT22;23763;48.130;11.602;2022-07-30T10:39:54;25.30;79.80
37938;DHT22;23763;48.130;11.602;2022-07-30T10:47:45;25.70;82.80
37938;DHT22;23763;48.130;11.602;2022-07-30T10:50:21;25.80;82.40
37938;DHT22;23763;48.130;11.602;2022-07-30T10:52:58;25.40;77.40
37938;DHT22;23763;48.130;11.602;2022-07-30T10:55:30;24.80;76.60
37938;DHT22;23763;48.130;11.602;2022-07-30T10:58:11;24.50;81.20
37938;DHT22;23763;48.130;11.602;2022-07-30T11:03:30;24.80;83.00
37938;DHT22;23763;48.130;11.602;2022-07-30T11:06:23;24.70;81.60
37938;DHT22;23763;48.130;11.602;2022-07-30T11:08:49;24.80;82.10
37938;DHT22;23763;48.130;11.602;2022-07-30T11:13:51;25.00;82.50
37938;DHT22;23763;48.130;11.602;2022-07-30T11:16:18;25.10;81.20
37938;DHT22;23763;48.130;11.602;2022-07-30T11:19:07;25.20;81.60
37938;DHT22;23763;48.130;11.602;2022-07-30T11:21:34;25.20;81.60
37938;DHT22;23763;48.130;11.602;2022-07-30T11:24:00;25.30;81.20
37938;DHT22;23763;48.130;11.602;2022-07-30T11:29:05;25.90;80.50
37938;DHT22;23763;48.130;11.602;2022-07-30T11:37:09;25.60;80.10
37938;DHT22;23763;48.130;11.602;2022-07-30T11:42:26;25.90;79.70
37938;DHT22;23763;48.130;11.602;2022-07-30T11:45:03;26.00;80.10
37938;DHT22;23763;48.130;11.602;2022-07-30T11:47:38;26.00;78.90
37938;DHT22;23763;48.130;11.602;2022-07-30T11:50:04;26.00;78.70
37938;DHT22;23763;48.130;11.602;2022-07-30T11:52:31;25.90;79.50
37938;DHT22;23763;48.130;11.602;2022-07-30T11:54:57;26.10;79.40
37938;DHT22;23763;48.130;11.602;2022-07-30T11:57:39;26.10;78.70
37938;DHT22;23763;48.130;11.602;2022-07-30T12:00:06;25.70;80.40
37938;DHT22;23763;48.130;11.602;2022-07-30T12:02:31;25.40;81.00
37938;DHT22;23763;48.130;11.602;2022-07-30T12:04:57;24.90;82.30
37938;DHT22;23763;48.130;11.602;2022-07-30T12:07:23;24.50;83.30
37938;DHT22;23763;48.130;11.602;2022-07-30T12:09:48;24.50;83.30
37938;DHT22;23763;48.130;11.602;2022-07-30T12:12:21;24.70;82.50
37938;DHT22;23763;48.130;11.602;2022-07-30T12:14:50;24.90;81.40
37938;DHT22;23763;48.130;11.602;2022-07-30T12:17:16;25.00;80.40
37938;DHT22;23763;48.130;11.602;2022-07-30T12:19:46;25.00;80.00
37938;DHT22;23763;48.130;11.602;2022-07-30T12:22:12;25.20;80.30
37938;DHT22;23763;48.130;11.602;2022-07-30T12:24:38;25.10;78.10
37938;DHT22;23763;48.130;11.602;2022-07-30T12:27:05;25.20;78.00
37938;DHT22;23763;48.130;11.602;2022-07-30T12:29:33;25.20;78.40
37938;DHT22;23763;48.130;11.602;2022-07-30T12:31:59;25.40;77.40
37938;DHT22;23763;48.130;11.602;2022-07-30T12:34:25;25.50;76.00
37938;DHT22;23763;48.130;11.602;2022-07-30T12:36:51;25.60;76.10
37938;DHT22;23763;48.130;11.602;2022-07-30T12:39:22;25.60;75.90
37938;DHT22;23763;48.130;11.602;2022-07-30T12:41:49;25.60;75.60
37938;DHT22;23763;48.130;11.602;2022-07-30T12:44:38;25.60;74.70
37938;DHT22;23763;48.130;11.602;2022-07-30T12:47:06;25.60;74.50
37938;DHT22;23763;48.130;11.602;2022-07-30T12:49:42;25.70;73.40
37938;DHT22;23763;48.130;11.602;2022-07-30T12:52:08;25.90;73.80
37938;DHT22;23763;48.130;11.602;2022-07-30T12:54:33;26.00;74.00
37938;DHT22;23763;48.130;11.602;2022-07-30T12:59:25;25.80;72.90
37938;DHT22;23763;48.130;11.602;2022-07-30T13:01:51;25.80;73.50
37938;DHT22;23763;48.130;11.602;2022-07-30T13:04:18;25.80;73.50
37938;DHT22;23763;48.130;11.602;2022-07-30T13:07:05;25.80;73.30
37938;DHT22;23763;48.130;11.602;2022-07-30T13:09:31;25.90;73.90
37938;DHT22;23763;48.130;11.602;2022-07-30T13:11:57;25.70;72.50
37938;DHT22;23763;48.130;11.602;2022-07-30T13:14:22;25.40;73.80
37938;DHT22;23763;48.130;11.602;2022-07-30T13:16:48;25.20;74.70
37938;DHT22;23763;48.130;11.602;2022-07-30T13:19:14;25.20;75.20
37938;DHT22;23763;48.130;11.602;2022-07-30T13:21:40;25.20;75.20
37938;DHT22;23763;48.130;11.602;2022-07-30T13:24:07;25.10;75.40
37938;DHT22;23763;48.130;11.602;2022-07-30T13:26:33;25.10;74.50
37938;DHT22;23763;48.130;11.602;2022-07-30T13:29:01;25.20;74.80
37938;DHT22;23763;48.130;11.602;2022-07-30T13:31:26;25.10;74.90
37938;DHT22;23763;48.130;11.602;2022-07-30T13:33:52;25.30;75.00
37938;DHT22;23763;48.130;11.602;2022-07-30T13:36:18;25.40;72.00
37938;DHT22;23763;48.130;11.602;2022-07-30T13:38:44;25.40;72.70
37938;DHT22;23763;48.130;11.602;2022-07-30T13:41:10;25.80;72.60
37938;DHT22;23763;48.130;11.602;2022-07-30T13:43:36;25.70;72.10
37938;DHT22;23763;48.130;11.602;2022-07-30T13:46:03;25.70;72.70
37938;DHT22;23763;48.130;11.602;2022-07-30T13:48:29;25.80;72.80
37938;DHT22;23763;48.130;11.602;2022-07-30T13:50:55;25.80;72.20
37938;DHT22;23763;48.130;11.602;2022-07-30T13:53:21;25.70;72.60
37938;DHT22;23763;48.130;11.602;2022-07-30T13:55:47;25.60;72.70
37938;DHT22;23763;48.130;11.602;2022-07-30T13:58:13;25.40;72.60
37938;DHT22;23763;48.130;11.602;2022-07-30T14:00:39;25.50;72.60
37938;DHT22;23763;48.130;11.602;2022-07-30T14:03:07;25.60;72.70
37938;DHT22;23763;48.130;11.602;2022-07-30T14:05:33;25.60;72.10
37938;DHT22;23763;48.130;11.602;2022-07-30T14:08:01;25.70;71.10
37938;DHT22;23763;48.130;11.602;2022-07-30T14:10:28;25.70;72.50
37938;DHT22;23763;48.130;11.602;2022-07-30T14:12:55;25.80;72.10
37938;DHT22;23763;48.130;11.602;2022-07-30T14:15:25;25.70;71.60
37938;DHT22;23763;48.130;11.602;2022-07-30T14:17:51;25.60;72.40
37938;DHT22;23763;48.130;11.602;2022-07-30T14:20:17;25.60;72.00
37938;DHT22;23763;48.130;11.602;2022-07-30T14:22:43;25.70;71.90
37938;DHT22;23763;48.130;11.602;2022-07-30T14:25:09;25.70;71.40
37938;DHT22;23763;48.130;11.602;2022-07-30T14:27:36;25.90;71.20
37938;DHT22;23763;48.130;11.602;2022-07-30T14:30:04;26.00;71.60
37938;DHT22;23763;48.130;11.602;2022-07-30T14:32:30;26.00;71.30
37938;DHT22;23763;48.130;11.602;2022-07-30T14:34:56;26.10;72.10
37938;DHT22;23763;48.130;11.602;2022-07-30T14:37:22;26.30;71.40
37938;DHT22;23763;48.130;11.602;2022-07-30T14:39:48;26.40;71.40
37938;DHT22;23763;48.130;11.602;2022-07-30T14:42:14;26.50;70.80
37938;DHT22;23763;48.130;11.602;2022-07-30T14:44:40;26.50;70.00
37938;DHT22;23763;48.130;11.602;2022-07-30T14:47:06;26.50;70.70
37938;DHT22;23763;48.130;11.602;2022-07-30T14:49:32;26.30;70.00
37938;DHT22;23763;48.130;11.602;2022-07-30T14:51:57;26.30;70.10
37938;DHT22;23763;48.130;11.602;2022-07-30T14:54:23;26.40;71.20
37938;DHT22;23763;48.130;11.602;2022-07-30T14:56:49;26.40;69.60
37938;DHT22;23763;48.130;11.602;2022-07-30T14:59:15;26.50;70.00
37938;DHT22;23763;48.130;11.602;2022-07-30T15:01:41;26.40;70.00
37938;DHT22;23763;48.130;11.602;2022-07-30T15:04:08;26.30;70.30
37938;DHT22;23763;48.130;11.602;2022-07-30T15:06:35;26.40;69.90
37938;DHT22;23763;48.130;11.602;2022-07-30T15:09:02;26.50;70.20
37938;DHT22;23763;48.130;11.602;2022-07-30T15:11:28;26.60;69.80
37938;DHT22;23763;48.130;11.602;2022-07-30T15:13:53;26.80;69.10
37938;DHT22;23763;48.130;11.602;2022-07-30T15:16:19;26.80;69.00
37938;DHT22;23763;48.130;11.602;2022-07-30T15:18:44;26.90;69.20
37938;DHT22;23763;48.130;11.602;2022-07-30T15:21:11;27.00;69.20
37938;DHT22;23763;48.130;11.602;2022-07-30T15:23:39;26.90;69.20
37938;DHT22;23763;48.130;11.602;2022-07-30T15:26:05;26.70;69.90
37938;DHT22;23763;48.130;11.602;2022-07-30T15:28:30;26.40;69.80
37938;DHT22;23763;48.130;11.602;2022-07-30T15:30:56;26.30;69.80
37938;DHT22;23763;48.130;11.602;2022-07-30T15:33:23;26.40;70.50
37938;DHT22;23763;48.130;11.602;2022-07-30T15:35:48;26.50;69.80
37938;DHT22;23763;48.130;11.602;2022-07-30T15:38:14;26.70;69.40
37938;DHT22;23763;48.130;11.602;2022-07-30T15:40:40;26.90;69.20
37938;DHT22;23763;48.130;11.602;2022-07-30T15:43:06;27.00;69.20
37938;DHT22;23763;48.130;11.602;2022-07-30T15:45:32;27.00;68.50
37938;DHT22;23763;48.130;11.602;2022-07-30T15:47:58;27.00;69.00
37938;DHT22;23763;48.130;11.602;2022-07-30T15:50:23;26.90;68.90